PWSweather.com
Personal Weather Stations
Station Observations
IBRABANT12
Leuven, BlandenBE 3052

LeuvenBlandenBE 3052

Lat: 50.8252218, Lon: 4.709682799999996

Elevation: 193

Station Type: Davis Vantage Vue

http://www.weerstationblanden.be

Latest ConditionsUpdated 2:40:12 PM GMT+01:01 Sunday, Jun 25, 2017
Currently Today's Max Today's Min Today's Average
Temperature 70.7°F21.5°C 71.6°F22.0°C 61.4°F16.3°C 64.3°F17.9°C
Dew Point 56.6°F13.7°C 59.7°F15.4°C 56.5°F13.6°C 58.3°F14.6°C
Winds 7.9 mph SW12.7 kmh SW 14.0 mph SW22.5 kmh SW - 8.8 mph 14.2 kmh
Wind Gusts 13.0 mph20.9 kmh 19.0 mph30.6 kmh - -
Humidity 61% 93% 59% 82%
Pressure 29.87 in1011.5 mb 29.89 in1012.2 mb 29.84 in1010.5 mb -
Precipitation - 0.02 in0.5 mm - -
Hour Temp Dew Point Humidity Winds Wind Gusts Pressure Precip Precip Rate Daily Precip Total
02:40 PM 70.7°F21.5°C 56.6°F13.7°C 61% 7.9 mph SW12.7 kmh SW 13.0 mph20.9 kmh 29.87 in1011.5 mb - 0.00 in0.0 mm 0.02 in0.5 mm
02:30 PM 71.2°F21.8°C 56.6°F13.7°C 60% 10.5 mph SW16.9 kmh SW 12.0 mph19.3 kmh 29.88 in1011.9 mb - 0.00 in0.0 mm 0.02 in0.5 mm
02:20 PM 71.6°F22.0°C 56.5°F13.6°C 59% 14.0 mph SW22.5 kmh SW 17.0 mph27.4 kmh 29.88 in1011.9 mb - 0.00 in0.0 mm 0.02 in0.5 mm
02:10 PM 70.7°F21.5°C 57.9°F14.4°C 64% 10.3 mph WSW16.6 kmh WSW 14.0 mph22.5 kmh 29.88 in1011.9 mb - 0.00 in0.0 mm 0.02 in0.5 mm
02:00 PM 69.7°F20.9°C 57.0°F13.9°C 64% 9.1 mph S14.6 kmh S 15.0 mph24.1 kmh 29.88 in1011.9 mb - 0.00 in0.0 mm 0.02 in0.5 mm
01:50 PM 68.9°F20.5°C 57.5°F14.2°C 67% 7.3 mph SW11.7 kmh SW 8.0 mph12.9 kmh 29.87 in1011.5 mb - 0.00 in0.0 mm 0.02 in0.5 mm
01:40 PM 68.6°F20.3°C 57.2°F14.0°C 67% 12.1 mph SW19.5 kmh SW 17.0 mph27.4 kmh 29.88 in1011.9 mb - 0.00 in0.0 mm 0.02 in0.5 mm
01:30 PM 69.2°F20.7°C 57.4°F14.1°C 66% 8.6 mph SW13.8 kmh SW 16.0 mph25.7 kmh 29.87 in1011.5 mb - 0.00 in0.0 mm 0.02 in0.5 mm
01:20 PM 69.7°F20.9°C 57.4°F14.1°C 65% 11.0 mph S17.7 kmh S 16.0 mph25.7 kmh 29.88 in1011.9 mb - 0.00 in0.0 mm 0.02 in0.5 mm
01:10 PM 69.1°F20.6°C 56.9°F13.8°C 65% 8.5 mph SW13.7 kmh SW 11.0 mph17.7 kmh 29.88 in1011.9 mb - 0.00 in0.0 mm 0.02 in0.5 mm
01:00 PM 68.6°F20.3°C 57.2°F14.0°C 67% 8.9 mph SW14.3 kmh SW 18.0 mph29.0 kmh 29.88 in1011.9 mb - 0.00 in0.0 mm 0.02 in0.5 mm
12:50 PM 68.7°F20.4°C 57.3°F14.1°C 67% 9.5 mph WSW15.3 kmh WSW 13.0 mph20.9 kmh 29.88 in1011.9 mb - 0.00 in0.0 mm 0.02 in0.5 mm
12:40 PM 67.6°F19.8°C 57.0°F13.9°C 69% 7.5 mph WNW12.1 kmh WNW 10.0 mph16.1 kmh 29.88 in1011.9 mb - 0.00 in0.0 mm 0.02 in0.5 mm
12:30 PM 66.9°F19.4°C 56.8°F13.8°C 70% 10.1 mph SW16.3 kmh SW 16.0 mph25.7 kmh 29.89 in1012.2 mb - 0.00 in0.0 mm 0.02 in0.5 mm
11:50 AM 66.5°F19.2°C 57.9°F14.4°C 74% 8.5 mph WSW13.7 kmh WSW 12.0 mph19.3 kmh 29.88 in1011.9 mb - 0.00 in0.0 mm 0.02 in0.5 mm
11:40 AM 66.6°F19.2°C 57.7°F14.3°C 73% 9.9 mph SW15.9 kmh SW 13.0 mph20.9 kmh 29.88 in1011.9 mb - 0.00 in0.0 mm 0.02 in0.5 mm
11:30 AM 65.1°F18.4°C 56.6°F13.7°C 74% 7.6 mph SW12.2 kmh SW 9.0 mph14.5 kmh 29.88 in1011.9 mb - 0.00 in0.0 mm 0.02 in0.5 mm
11:20 AM 65.8°F18.8°C 56.9°F13.8°C 73% 9.6 mph SW15.4 kmh SW 13.0 mph20.9 kmh 29.88 in1011.9 mb - 0.00 in0.0 mm 0.02 in0.5 mm
11:10 AM 65.9°F18.8°C 57.4°F14.1°C 74% 7.0 mph WSW11.3 kmh WSW 14.0 mph22.5 kmh 29.88 in1011.9 mb - 0.00 in0.0 mm 0.02 in0.5 mm
11:00 AM 65.0°F18.3°C 56.9°F13.8°C 75% 9.5 mph WNW15.3 kmh WNW 14.0 mph22.5 kmh 29.88 in1011.9 mb - 0.00 in0.0 mm 0.02 in0.5 mm
10:50 AM 65.4°F18.6°C 57.3°F14.1°C 75% 12.6 mph SW20.3 kmh SW 19.0 mph30.6 kmh 29.88 in1011.9 mb - 0.00 in0.0 mm 0.02 in0.5 mm
10:40 AM 66.2°F19.0°C 58.4°F14.7°C 76% 8.9 mph SW14.3 kmh SW 12.0 mph19.3 kmh 29.88 in1011.9 mb - 0.00 in0.0 mm 0.02 in0.5 mm
10:30 AM 65.2°F18.4°C 56.7°F13.7°C 74% 9.4 mph SW15.1 kmh SW 15.0 mph24.1 kmh 29.88 in1011.9 mb - 0.00 in0.0 mm 0.02 in0.5 mm
10:20 AM 65.3°F18.5°C 57.2°F14.0°C 75% 9.6 mph WSW15.4 kmh WSW 12.0 mph19.3 kmh 29.87 in1011.5 mb - 0.00 in0.0 mm 0.02 in0.5 mm
10:10 AM 66.0°F18.9°C 58.2°F14.6°C 76% 6.0 mph S9.7 kmh S 12.0 mph19.3 kmh 29.87 in1011.5 mb - 0.00 in0.0 mm 0.02 in0.5 mm
10:00 AM 65.2°F18.4°C 58.6°F14.8°C 79% 11.5 mph SW18.5 kmh SW 15.0 mph24.1 kmh 29.87 in1011.5 mb - 0.00 in0.0 mm 0.02 in0.5 mm
09:50 AM 64.5°F18.1°C 57.8°F14.3°C 79% 7.5 mph SW12.1 kmh SW 10.0 mph16.1 kmh 29.87 in1011.5 mb - 0.00 in0.0 mm 0.02 in0.5 mm
09:40 AM 65.0°F18.3°C 58.3°F14.6°C 79% 9.9 mph W15.9 kmh W 15.0 mph24.1 kmh 29.87 in1011.5 mb - 0.00 in0.0 mm 0.02 in0.5 mm
09:30 AM 64.3°F17.9°C 58.4°F14.7°C 81% 8.7 mph SW14.0 kmh SW 12.0 mph19.3 kmh 29.87 in1011.5 mb - 0.00 in0.0 mm 0.02 in0.5 mm
09:20 AM 64.1°F17.8°C 58.5°F14.7°C 82% 7.1 mph W11.4 kmh W 13.0 mph20.9 kmh 29.87 in1011.5 mb - 0.00 in0.0 mm 0.02 in0.5 mm
09:10 AM 63.7°F17.6°C 58.4°F14.7°C 83% 9.6 mph WSW15.4 kmh WSW 14.0 mph22.5 kmh 29.87 in1011.5 mb - 0.00 in0.0 mm 0.02 in0.5 mm
09:00 AM 63.5°F17.5°C 58.6°F14.8°C 84% 11.7 mph W18.8 kmh W 14.0 mph22.5 kmh 29.87 in1011.5 mb - 0.00 in0.0 mm 0.02 in0.5 mm
08:50 AM 62.8°F17.1°C 58.5°F14.7°C 86% 8.9 mph WSW14.3 kmh WSW 12.0 mph19.3 kmh 29.86 in1011.2 mb - 0.00 in0.0 mm 0.02 in0.5 mm
08:40 AM 62.3°F16.8°C 58.1°F14.5°C 86% 9.8 mph SW15.8 kmh SW 14.0 mph22.5 kmh 29.86 in1011.2 mb - 0.00 in0.0 mm 0.02 in0.5 mm
08:30 AM 62.3°F16.8°C 58.1°F14.5°C 86% 6.1 mph SW9.8 kmh SW 9.0 mph14.5 kmh 29.86 in1011.2 mb - 0.00 in0.0 mm 0.02 in0.5 mm
08:20 AM 62.3°F16.8°C 58.1°F14.5°C 86% 8.6 mph SSW13.8 kmh SSW 11.0 mph17.7 kmh 29.86 in1011.2 mb - 0.00 in0.0 mm 0.02 in0.5 mm
08:10 AM 62.1°F16.7°C 57.9°F14.4°C 86% 13.1 mph SW21.1 kmh SW 17.0 mph27.4 kmh 29.86 in1011.2 mb - 0.00 in0.0 mm 0.02 in0.5 mm
08:00 AM 62.1°F16.7°C 57.9°F14.4°C 86% 8.9 mph SW14.3 kmh SW 11.0 mph17.7 kmh 29.85 in1010.8 mb - 0.00 in0.0 mm 0.02 in0.5 mm
07:50 AM 62.1°F16.7°C 57.9°F14.4°C 86% 12.2 mph W19.6 kmh W 15.0 mph24.1 kmh 29.86 in1011.2 mb - 0.00 in0.0 mm 0.02 in0.5 mm
07:40 AM 62.1°F16.7°C 57.9°F14.4°C 86% 8.6 mph SW13.8 kmh SW 16.0 mph25.7 kmh 29.85 in1010.8 mb - 0.00 in0.0 mm 0.02 in0.5 mm
07:30 AM 62.5°F16.9°C 57.9°F14.4°C 85% 8.3 mph SW13.4 kmh SW 11.0 mph17.7 kmh 29.85 in1010.8 mb - 0.00 in0.0 mm 0.02 in0.5 mm
07:20 AM 63.1°F17.3°C 58.5°F14.7°C 85% 12.0 mph SW19.3 kmh SW 14.0 mph22.5 kmh 29.85 in1010.8 mb - 0.00 in0.0 mm 0.02 in0.5 mm
07:10 AM 62.8°F17.1°C 58.5°F14.7°C 86% 11.1 mph SW17.9 kmh SW 15.0 mph24.1 kmh 29.85 in1010.8 mb - 0.00 in0.0 mm 0.02 in0.5 mm
07:00 AM 62.4°F16.9°C 58.8°F14.9°C 88% 9.4 mph SW15.1 kmh SW 15.0 mph24.1 kmh 29.85 in1010.8 mb - 0.00 in0.0 mm 0.02 in0.5 mm
06:50 AM 62.0°F16.7°C 58.4°F14.7°C 88% 7.7 mph SSW12.4 kmh SSW 13.0 mph20.9 kmh 29.85 in1010.8 mb - 0.00 in0.0 mm 0.02 in0.5 mm
06:40 AM 62.0°F16.7°C 58.7°F14.8°C 89% 9.0 mph S14.5 kmh S 11.0 mph17.7 kmh 29.84 in1010.5 mb - 0.00 in0.0 mm 0.02 in0.5 mm
06:30 AM 61.7°F16.5°C 58.4°F14.7°C 89% 9.1 mph SW14.6 kmh SW 11.0 mph17.7 kmh 29.84 in1010.5 mb - 0.00 in0.0 mm 0.02 in0.5 mm
06:20 AM 61.6°F16.4°C 58.3°F14.6°C 89% 9.7 mph WSW15.6 kmh WSW 13.0 mph20.9 kmh 29.85 in1010.8 mb - 0.00 in0.0 mm 0.02 in0.5 mm
06:10 AM 61.6°F16.4°C 58.6°F14.8°C 90% 10.8 mph SW17.4 kmh SW 14.0 mph22.5 kmh 29.85 in1010.8 mb - 0.00 in0.0 mm 0.02 in0.5 mm
06:00 AM 61.5°F16.4°C 58.5°F14.7°C 90% 10.0 mph SW16.1 kmh SW 13.0 mph20.9 kmh 29.84 in1010.5 mb - 0.00 in0.0 mm 0.02 in0.5 mm
05:50 AM 61.6°F16.4°C 58.9°F14.9°C 91% 13.0 mph SW20.9 kmh SW 18.0 mph29.0 kmh 29.85 in1010.8 mb - 0.00 in0.0 mm 0.02 in0.5 mm
05:40 AM 61.6°F16.4°C 59.3°F15.2°C 92% 8.0 mph SW12.9 kmh SW 13.0 mph20.9 kmh 29.84 in1010.5 mb - 0.00 in0.0 mm 0.02 in0.5 mm
05:30 AM 61.5°F16.4°C 59.5°F15.3°C 93% 7.6 mph SW12.2 kmh SW 13.0 mph20.9 kmh 29.84 in1010.5 mb - 0.00 in0.0 mm 0.02 in0.5 mm
05:20 AM 61.5°F16.4°C 59.5°F15.3°C 93% 9.0 mph SW14.5 kmh SW 11.0 mph17.7 kmh 29.84 in1010.5 mb - 0.00 in0.0 mm 0.02 in0.5 mm
05:10 AM 61.6°F16.4°C 59.5°F15.3°C 93% 8.0 mph SW12.9 kmh SW 9.0 mph14.5 kmh 29.84 in1010.5 mb - 0.01 in0.3 mm 0.02 in0.5 mm
05:00 AM 61.6°F16.4°C 59.6°F15.3°C 93% 6.9 mph SW11.1 kmh SW 9.0 mph14.5 kmh 29.84 in1010.5 mb - 0.01 in0.3 mm 0.01 in0.3 mm
04:50 AM 61.7°F16.5°C 59.7°F15.4°C 93% 5.9 mph SW9.5 kmh SW 8.0 mph12.9 kmh 29.85 in1010.8 mb - 0.00 in0.0 mm 0.00 in0.0 mm
04:40 AM 61.6°F16.4°C 59.6°F15.3°C 93% 6.5 mph SW10.5 kmh SW 8.0 mph12.9 kmh 29.85 in1010.8 mb - 0.00 in0.0 mm 0.00 in0.0 mm
04:30 AM 61.6°F16.4°C 59.6°F15.3°C 93% 4.8 mph SW7.7 kmh SW 6.0 mph9.7 kmh 29.85 in1010.8 mb - 0.00 in0.0 mm 0.00 in0.0 mm
04:20 AM 61.5°F16.4°C 59.5°F15.3°C 93% 5.9 mph SW9.5 kmh SW 8.0 mph12.9 kmh 29.85 in1010.8 mb - 0.00 in0.0 mm 0.00 in0.0 mm
04:10 AM 61.5°F16.4°C 59.5°F15.3°C 93% 6.5 mph SW10.5 kmh SW 8.0 mph12.9 kmh 29.85 in1010.8 mb - 0.00 in0.0 mm 0.00 in0.0 mm
04:00 AM 61.5°F16.4°C 59.5°F15.3°C 93% 5.1 mph SW8.2 kmh SW 6.0 mph9.7 kmh 29.85 in1010.8 mb - 0.00 in0.0 mm 0.00 in0.0 mm
03:20 AM 61.5°F16.4°C 59.2°F15.1°C 92% 8.2 mph SW13.2 kmh SW 10.0 mph16.1 kmh 29.86 in1011.2 mb - 0.00 in0.0 mm 0.00 in0.0 mm
03:10 AM 61.4°F16.3°C 59.1°F15.1°C 92% 8.3 mph SW13.4 kmh SW 12.0 mph19.3 kmh 29.86 in1011.2 mb - 0.00 in0.0 mm 0.00 in0.0 mm
03:00 AM 61.4°F16.3°C 59.1°F15.1°C 92% 6.4 mph WSW10.3 kmh WSW 9.0 mph14.5 kmh 29.86 in1011.2 mb - 0.00 in0.0 mm 0.00 in0.0 mm
02:50 AM 61.5°F16.4°C 58.8°F14.9°C 91% 7.9 mph SW12.7 kmh SW 10.0 mph16.1 kmh 29.86 in1011.2 mb - 0.00 in0.0 mm 0.00 in0.0 mm
02:40 AM 61.7°F16.5°C 59.0°F15.0°C 91% 7.9 mph SW12.7 kmh SW 12.0 mph19.3 kmh 29.86 in1011.2 mb - 0.00 in0.0 mm 0.00 in0.0 mm
02:30 AM 62.0°F16.7°C 59.0°F15.0°C 90% 6.6 mph SW10.6 kmh SW 8.0 mph12.9 kmh 29.86 in1011.2 mb - 0.00 in0.0 mm 0.00 in0.0 mm
02:20 AM 62.4°F16.9°C 58.8°F14.9°C 88% 7.8 mph SW12.6 kmh SW 10.0 mph16.1 kmh 29.86 in1011.2 mb - 0.00 in0.0 mm 0.00 in0.0 mm
02:10 AM 62.7°F17.1°C 59.1°F15.1°C 88% 6.9 mph SW11.1 kmh SW 10.0 mph16.1 kmh 29.86 in1011.2 mb - 0.00 in0.0 mm 0.00 in0.0 mm
02:00 AM 63.0°F17.2°C 59.1°F15.1°C 87% 7.9 mph SW12.7 kmh SW 13.0 mph20.9 kmh 29.87 in1011.5 mb - 0.00 in0.0 mm 0.00 in0.0 mm
01:50 AM 63.4°F17.4°C 58.8°F14.9°C 85% 8.0 mph SW12.9 kmh SW 11.0 mph17.7 kmh 29.87 in1011.5 mb - 0.00 in0.0 mm 0.00 in0.0 mm
01:40 AM 63.8°F17.7°C 58.9°F14.9°C 84% 8.5 mph SW13.7 kmh SW 9.0 mph14.5 kmh 29.86 in1011.2 mb - 0.00 in0.0 mm 0.00 in0.0 mm
01:30 AM 64.4°F18.0°C 58.8°F14.9°C 82% 12.3 mph SW19.8 kmh SW 13.0 mph20.9 kmh 29.87 in1011.5 mb - 0.00 in0.0 mm 0.00 in0.0 mm
01:20 AM 64.4°F18.0°C 58.8°F14.9°C 82% 10.8 mph WSW17.4 kmh WSW 14.0 mph22.5 kmh 29.87 in1011.5 mb - 0.00 in0.0 mm 0.00 in0.0 mm
01:10 AM 64.5°F18.1°C 58.9°F14.9°C 82% 5.2 mph SW8.4 kmh SW 8.0 mph12.9 kmh 29.87 in1011.5 mb - 0.00 in0.0 mm 0.00 in0.0 mm
01:00 AM 64.5°F18.1°C 58.9°F14.9°C 82% 8.1 mph WSW13.0 kmh WSW 10.0 mph16.1 kmh 29.87 in1011.5 mb - 0.00 in0.0 mm 0.00 in0.0 mm
12:50 AM 64.5°F18.1°C 58.5°F14.7°C 81% 7.4 mph SW11.9 kmh SW 12.0 mph19.3 kmh 29.87 in1011.5 mb - 0.00 in0.0 mm 0.00 in0.0 mm
12:40 AM 64.6°F18.1°C 58.6°F14.8°C 81% 11.3 mph SW18.2 kmh SW 14.0 mph22.5 kmh 29.88 in1011.9 mb - 0.00 in0.0 mm 0.00 in0.0 mm
12:30 AM 64.7°F18.2°C 58.7°F14.8°C 81% 6.7 mph SW10.8 kmh SW 9.0 mph14.5 kmh 29.88 in1011.9 mb - 0.00 in0.0 mm 0.00 in0.0 mm
12:20 AM 64.8°F18.2°C 58.8°F14.9°C 81% 6.5 mph SW10.5 kmh SW 8.0 mph12.9 kmh 29.88 in1011.9 mb - 0.00 in0.0 mm 0.00 in0.0 mm
12:10 AM 64.8°F18.2°C 58.5°F14.7°C 80% 8.7 mph WSW14.0 kmh WSW 13.0 mph20.9 kmh 29.88 in1011.9 mb - 0.00 in0.0 mm 0.00 in0.0 mm
12:00 AM 65.0°F18.3°C 58.7°F14.8°C 80% 6.5 mph SW10.5 kmh SW 12.0 mph19.3 kmh 29.88 in1011.9 mb - 0.00 in0.0 mm 0.00 in0.0 mm